sensor_id;sensor_type;location;lat;lon;timestamp;P1;durP1;ratioP1;P2;durP2;ratioP2
22780;SDS011;11557;50.884;4.322;2022-10-15T00:00:30;39.95;;;31.83;;
22780;SDS011;11557;50.884;4.322;2022-10-15T00:02:55;41.58;;;31.98;;
22780;SDS011;11557;50.884;4.322;2022-10-15T00:05:21;40.92;;;32.70;;
22780;SDS011;11557;50.884;4.322;2022-10-15T00:07:47;36.95;;;31.63;;
22780;SDS011;11557;50.884;4.322;2022-10-15T00:10:13;39.55;;;32.38;;
22780;SDS011;11557;50.884;4.322;2022-10-15T00:12:39;38.55;;;32.92;;
22780;SDS011;11557;50.884;4.322;2022-10-15T00:15:06;40.47;;;32.03;;
22780;SDS011;11557;50.884;4.322;2022-10-15T00:17:33;38.53;;;31.70;;
22780;SDS011;11557;50.884;4.322;2022-10-15T00:19:59;38.97;;;32.42;;
22780;SDS011;11557;50.884;4.322;2022-10-15T00:22:24;43.15;;;32.55;;
22780;SDS011;11557;50.884;4.322;2022-10-15T00:24:50;38.38;;;30.73;;
22780;SDS011;11557;50.884;4.322;2022-10-15T00:27:16;41.42;;;31.58;;
22780;SDS011;11557;50.884;4.322;2022-10-15T00:29:41;44.55;;;33.03;;
22780;SDS011;11557;50.884;4.322;2022-10-15T00:32:07;37.95;;;31.27;;
22780;SDS011;11557;50.884;4.322;2022-10-15T00:34:33;36.25;;;31.20;;
22780;SDS011;11557;50.884;4.322;2022-10-15T00:36:59;39.67;;;30.15;;
22780;SDS011;11557;50.884;4.322;2022-10-15T00:39:24;34.33;;;28.85;;
22780;SDS011;11557;50.884;4.322;2022-10-15T00:41:50;33.40;;;28.73;;
22780;SDS011;11557;50.884;4.322;2022-10-15T00:47:12;34.92;;;27.20;;
22780;SDS011;11557;50.884;4.322;2022-10-15T00:52:24;35.17;;;28.33;;
22780;SDS011;11557;50.884;4.322;2022-10-15T00:55:17;34.60;;;27.30;;
22780;SDS011;11557;50.884;4.322;2022-10-15T00:57:46;32.72;;;27.85;;
22780;SDS011;11557;50.884;4.322;2022-10-15T01:00:15;30.55;;;26.80;;
22780;SDS011;11557;50.884;4.322;2022-10-15T01:02:42;31.15;;;27.38;;
22780;SDS011;11557;50.884;4.322;2022-10-15T01:05:09;30.90;;;27.02;;
22780;SDS011;11557;50.884;4.322;2022-10-15T01:07:35;40.65;;;27.42;;
22780;SDS011;11557;50.884;4.322;2022-10-15T01:10:02;32.35;;;27.60;;
22780;SDS011;11557;50.884;4.322;2022-10-15T01:23:26;33.17;;;27.27;;
22780;SDS011;11557;50.884;4.322;2022-10-15T01:35:08;33.25;;;26.30;;
22780;SDS011;11557;50.884;4.322;2022-10-15T01:40:45;31.27;;;26.83;;
22780;SDS011;11557;50.884;4.322;2022-10-15T01:43:29;31.92;;;27.83;;
22780;SDS011;11557;50.884;4.322;2022-10-15T01:46:05;33.97;;;27.02;;
22780;SDS011;11557;50.884;4.322;2022-10-15T01:48:36;31.27;;;26.85;;
22780;SDS011;11557;50.884;4.322;2022-10-15T01:51:04;32.58;;;27.38;;
22780;SDS011;11557;50.884;4.322;2022-10-15T01:53:30;30.70;;;25.70;;
22780;SDS011;11557;50.884;4.322;2022-10-15T01:56:18;32.85;;;26.63;;
22780;SDS011;11557;50.884;4.322;2022-10-15T01:58:46;33.90;;;27.52;;
22780;SDS011;11557;50.884;4.322;2022-10-15T02:01:14;40.40;;;29.73;;
22780;SDS011;11557;50.884;4.322;2022-10-15T02:03:47;37.08;;;28.10;;
22780;SDS011;11557;50.884;4.322;2022-10-15T02:06:19;36.50;;;28.58;;
22780;SDS011;11557;50.884;4.322;2022-10-15T02:11:33;37.22;;;29.55;;
22780;SDS011;11557;50.884;4.322;2022-10-15T02:14:30;37.95;;;29.25;;
22780;SDS011;11557;50.884;4.322;2022-10-15T02:17:09;42.28;;;32.25;;
22780;SDS011;11557;50.884;4.322;2022-10-15T02:22:25;44.65;;;32.17;;
22780;SDS011;11557;50.884;4.322;2022-10-15T02:24:57;38.90;;;31.92;;
22780;SDS011;11557;50.884;4.322;2022-10-15T02:27:28;42.28;;;30.48;;
22780;SDS011;11557;50.884;4.322;2022-10-15T02:29:55;44.35;;;32.50;;
22780;SDS011;11557;50.884;4.322;2022-10-15T02:32:22;43.03;;;31.27;;
22780;SDS011;11557;50.884;4.322;2022-10-15T02:34:49;39.83;;;31.33;;
22780;SDS011;11557;50.884;4.322;2022-10-15T02:37:16;46.92;;;32.03;;
22780;SDS011;11557;50.884;4.322;2022-10-15T02:39:46;38.13;;;30.20;;
22780;SDS011;11557;50.884;4.322;2022-10-15T02:42:13;43.63;;;31.58;;
22780;SDS011;11557;50.884;4.322;2022-10-15T02:44:42;40.88;;;30.90;;
22780;SDS011;11557;50.884;4.322;2022-10-15T02:47:08;41.40;;;31.10;;
22780;SDS011;11557;50.884;4.322;2022-10-15T02:49:35;41.60;;;30.92;;
22780;SDS011;11557;50.884;4.322;2022-10-15T02:52:01;41.25;;;31.00;;
22780;SDS011;11557;50.884;4.322;2022-10-15T02:54:27;41.65;;;31.20;;
22780;SDS011;11557;50.884;4.322;2022-10-15T02:56:53;43.35;;;33.28;;
22780;SDS011;11557;50.884;4.322;2022-10-15T02:59:18;43.05;;;32.42;;
22780;SDS011;11557;50.884;4.322;2022-10-15T03:01:44;42.15;;;31.90;;
22780;SDS011;11557;50.884;4.322;2022-10-15T03:04:10;40.70;;;31.05;;
22780;SDS011;11557;50.884;4.322;2022-10-15T03:06:36;43.92;;;32.22;;
22780;SDS011;11557;50.884;4.322;2022-10-15T03:09:02;40.42;;;30.85;;
22780;SDS011;11557;50.884;4.322;2022-10-15T03:11:28;38.42;;;29.95;;
22780;SDS011;11557;50.884;4.322;2022-10-15T03:13:53;36.60;;;29.42;;
22780;SDS011;11557;50.884;4.322;2022-10-15T03:16:19;40.17;;;29.35;;
22780;SDS011;11557;50.884;4.322;2022-10-15T03:18:44;37.35;;;28.00;;
22780;SDS011;11557;50.884;4.322;2022-10-15T03:21:10;35.25;;;27.75;;
22780;SDS011;11557;50.884;4.322;2022-10-15T03:23:36;39.65;;;26.90;;
22780;SDS011;11557;50.884;4.322;2022-10-15T03:26:02;32.45;;;26.77;;
22780;SDS011;11557;50.884;4.322;2022-10-15T03:28:27;38.03;;;26.10;;
22780;SDS011;11557;50.884;4.322;2022-10-15T03:30:53;34.28;;;26.13;;
22780;SDS011;11557;50.884;4.322;2022-10-15T03:33:19;34.60;;;25.98;;
22780;SDS011;11557;50.884;4.322;2022-10-15T03:35:45;30.23;;;25.45;;
22780;SDS011;11557;50.884;4.322;2022-10-15T03:38:10;31.70;;;25.02;;
22780;SDS011;11557;50.884;4.322;2022-10-15T03:40:36;31.27;;;25.65;;
22780;SDS011;11557;50.884;4.322;2022-10-15T03:43:02;31.92;;;25.05;;
22780;SDS011;11557;50.884;4.322;2022-10-15T03:45:27;32.15;;;25.33;;
22780;SDS011;11557;50.884;4.322;2022-10-15T03:47:53;35.50;;;26.85;;
22780;SDS011;11557;50.884;4.322;2022-10-15T03:50:19;36.97;;;28.33;;
22780;SDS011;11557;50.884;4.322;2022-10-15T03:52:44;37.38;;;28.88;;
22780;SDS011;11557;50.884;4.322;2022-10-15T03:55:10;37.58;;;28.05;;
22780;SDS011;11557;50.884;4.322;2022-10-15T03:57:36;39.50;;;28.33;;
22780;SDS011;11557;50.884;4.322;2022-10-15T04:00:03;39.25;;;28.75;;
22780;SDS011;11557;50.884;4.322;2022-10-15T04:02:30;44.08;;;29.65;;
22780;SDS011;11557;50.884;4.322;2022-10-15T04:04:56;35.08;;;28.30;;
22780;SDS011;11557;50.884;4.322;2022-10-15T04:07:22;37.42;;;28.45;;
22780;SDS011;11557;50.884;4.322;2022-10-15T04:09:48;37.65;;;28.48;;
22780;SDS011;11557;50.884;4.322;2022-10-15T04:12:14;34.22;;;27.25;;
22780;SDS011;11557;50.884;4.322;2022-10-15T04:14:40;34.53;;;26.88;;
22780;SDS011;11557;50.884;4.322;2022-10-15T04:17:06;33.88;;;27.30;;
22780;SDS011;11557;50.884;4.322;2022-10-15T04:19:31;33.28;;;26.08;;
22780;SDS011;11557;50.884;4.322;2022-10-15T04:21:57;35.30;;;26.13;;
22780;SDS011;11557;50.884;4.322;2022-10-15T04:24:23;34.65;;;25.40;;
22780;SDS011;11557;50.884;4.322;2022-10-15T04:26:49;32.10;;;24.65;;
22780;SDS011;11557;50.884;4.322;2022-10-15T04:29:14;31.45;;;24.42;;
22780;SDS011;11557;50.884;4.322;2022-10-15T04:31:41;29.13;;;23.40;;
22780;SDS011;11557;50.884;4.322;2022-10-15T04:34:07;30.10;;;23.65;;
22780;SDS011;11557;50.884;4.322;2022-10-15T04:36:33;27.35;;;22.58;;
22780;SDS011;11557;50.884;4.322;2022-10-15T04:38:59;31.50;;;23.58;;
22780;SDS011;11557;50.884;4.322;2022-10-15T04:41:25;29.17;;;21.60;;
22780;SDS011;11557;50.884;4.322;2022-10-15T04:43:51;27.80;;;21.50;;
22780;SDS011;11557;50.884;4.322;2022-10-15T04:46:17;30.27;;;23.25;;
22780;SDS011;11557;50.884;4.322;2022-10-15T04:48:43;27.08;;;22.08;;
22780;SDS011;11557;50.884;4.322;2022-10-15T04:51:19;29.98;;;21.17;;
22780;SDS011;11557;50.884;4.322;2022-10-15T04:53:45;28.92;;;21.05;;
22780;SDS011;11557;50.884;4.322;2022-10-15T04:56:11;31.02;;;21.42;;
22780;SDS011;11557;50.884;4.322;2022-10-15T04:58:39;25.48;;;20.25;;
22780;SDS011;11557;50.884;4.322;2022-10-15T05:01:08;25.88;;;20.80;;
22780;SDS011;11557;50.884;4.322;2022-10-15T05:03:39;22.95;;;18.48;;
22780;SDS011;11557;50.884;4.322;2022-10-15T05:06:07;27.25;;;20.45;;
22780;SDS011;11557;50.884;4.322;2022-10-15T05:08:34;27.80;;;19.38;;
22780;SDS011;11557;50.884;4.322;2022-10-15T05:11:04;26.60;;;18.98;;
22780;SDS011;11557;50.884;4.322;2022-10-15T05:13:31;23.15;;;16.70;;
22780;SDS011;11557;50.884;4.322;2022-10-15T05:16:07;21.63;;;17.50;;
22780;SDS011;11557;50.884;4.322;2022-10-15T05:18:39;21.52;;;16.63;;
22780;SDS011;11557;50.884;4.322;2022-10-15T05:21:05;25.80;;;17.67;;
22780;SDS011;11557;50.884;4.322;2022-10-15T05:23:32;19.55;;;15.93;;
22780;SDS011;11557;50.884;4.322;2022-10-15T05:25:58;21.92;;;15.68;;
22780;SDS011;11557;50.884;4.322;2022-10-15T05:28:25;22.15;;;15.20;;
22780;SDS011;11557;50.884;4.322;2022-10-15T05:30:50;18.67;;;15.10;;
22780;SDS011;11557;50.884;4.322;2022-10-15T05:33:16;23.77;;;17.27;;
22780;SDS011;11557;50.884;4.322;2022-10-15T05:35:41;19.48;;;15.13;;
22780;SDS011;11557;50.884;4.322;2022-10-15T05:38:07;17.48;;;13.85;;
22780;SDS011;11557;50.884;4.322;2022-10-15T05:40:32;17.42;;;13.70;;
22780;SDS011;11557;50.884;4.322;2022-10-15T05:42:58;18.33;;;14.15;;
22780;SDS011;11557;50.884;4.322;2022-10-15T05:45:24;16.42;;;12.95;;
22780;SDS011;11557;50.884;4.322;2022-10-15T05:47:53;16.80;;;13.00;;
22780;SDS011;11557;50.884;4.322;2022-10-15T05:50:19;18.15;;;13.20;;
22780;SDS011;11557;50.884;4.322;2022-10-15T05:52:46;17.33;;;13.35;;
22780;SDS011;11557;50.884;4.322;2022-10-15T05:55:12;17.05;;;12.95;;
22780;SDS011;11557;50.884;4.322;2022-10-15T05:57:37;15.80;;;12.75;;
22780;SDS011;11557;50.884;4.322;2022-10-15T06:00:04;17.92;;;13.07;;
22780;SDS011;11557;50.884;4.322;2022-10-15T06:02:31;16.67;;;12.07;;
22780;SDS011;11557;50.884;4.322;2022-10-15T06:04:56;18.27;;;12.85;;
22780;SDS011;11557;50.884;4.322;2022-10-15T06:07:22;16.23;;;12.55;;
22780;SDS011;11557;50.884;4.322;2022-10-15T06:09:48;16.42;;;11.82;;
22780;SDS011;11557;50.884;4.322;2022-10-15T06:12:13;14.45;;;11.60;;
22780;SDS011;11557;50.884;4.322;2022-10-15T06:14:39;15.95;;;11.95;;
22780;SDS011;11557;50.884;4.322;2022-10-15T06:17:05;15.00;;;10.98;;
22780;SDS011;11557;50.884;4.322;2022-10-15T06:19:30;15.45;;;11.50;;
22780;SDS011;11557;50.884;4.322;2022-10-15T06:21:56;16.10;;;10.65;;
22780;SDS011;11557;50.884;4.322;2022-10-15T06:24:22;12.82;;;9.98;;
22780;SDS011;11557;50.884;4.322;2022-10-15T06:26:48;12.82;;;10.90;;
22780;SDS011;11557;50.884;4.322;2022-10-15T06:29:13;17.20;;;11.02;;
22780;SDS011;11557;50.884;4.322;2022-10-15T06:31:39;12.00;;;9.35;;
22780;SDS011;11557;50.884;4.322;2022-10-15T06:34:04;13.07;;;10.27;;
22780;SDS011;11557;50.884;4.322;2022-10-15T06:36:30;12.88;;;9.43;;
22780;SDS011;11557;50.884;4.322;2022-10-15T06:38:56;12.43;;;9.27;;
22780;SDS011;11557;50.884;4.322;2022-10-15T06:41:21;11.00;;;8.27;;
22780;SDS011;11557;50.884;4.322;2022-10-15T06:43:47;15.05;;;9.90;;
22780;SDS011;11557;50.884;4.322;2022-10-15T06:46:14;12.48;;;9.45;;
22780;SDS011;11557;50.884;4.322;2022-10-15T06:48:39;11.90;;;9.32;;
22780;SDS011;11557;50.884;4.322;2022-10-15T06:51:05;11.93;;;9.55;;
22780;SDS011;11557;50.884;4.322;2022-10-15T06:53:31;12.02;;;8.30;;
22780;SDS011;11557;50.884;4.322;2022-10-15T06:55:58;14.35;;;8.80;;
22780;SDS011;11557;50.884;4.322;2022-10-15T06:58:25;11.23;;;8.23;;
22780;SDS011;11557;50.884;4.322;2022-10-15T07:00:51;11.18;;;8.38;;
22780;SDS011;11557;50.884;4.322;2022-10-15T07:03:16;12.88;;;8.73;;
22780;SDS011;11557;50.884;4.322;2022-10-15T07:05:42;10.68;;;8.85;;
22780;SDS011;11557;50.884;4.322;2022-10-15T07:08:07;9.60;;;7.55;;
22780;SDS011;11557;50.884;4.322;2022-10-15T07:10:33;15.63;;;8.48;;
22780;SDS011;11557;50.884;4.322;2022-10-15T07:12:59;14.82;;;8.93;;
22780;SDS011;11557;50.884;4.322;2022-10-15T07:15:25;10.95;;;8.10;;
22780;SDS011;11557;50.884;4.322;2022-10-15T07:17:52;11.68;;;9.13;;
22780;SDS011;11557;50.884;4.322;2022-10-15T07:20:25;14.23;;;9.07;;
22780;SDS011;11557;50.884;4.322;2022-10-15T07:22:59;10.93;;;8.63;;
22780;SDS011;11557;50.884;4.322;2022-10-15T07:25:26;9.73;;;8.32;;
22780;SDS011;11557;50.884;4.322;2022-10-15T07:27:52;10.95;;;8.02;;
22780;SDS011;11557;50.884;4.322;2022-10-15T07:30:19;11.77;;;9.73;;
22780;SDS011;11557;50.884;4.322;2022-10-15T07:32:46;10.93;;;8.15;;
22780;SDS011;11557;50.884;4.322;2022-10-15T07:35:12;9.73;;;7.78;;
22780;SDS011;11557;50.884;4.322;2022-10-15T07:37:38;8.82;;;7.25;;
22780;SDS011;11557;50.884;4.322;2022-10-15T07:40:04;10.93;;;6.78;;
22780;SDS011;11557;50.884;4.322;2022-10-15T07:42:31;8.40;;;7.20;;
22780;SDS011;11557;50.884;4.322;2022-10-15T07:44:56;8.73;;;6.68;;
22780;SDS011;11557;50.884;4.322;2022-10-15T07:47:22;8.35;;;6.53;;
22780;SDS011;11557;50.884;4.322;2022-10-15T07:49:47;9.20;;;6.55;;
22780;SDS011;11557;50.884;4.322;2022-10-15T07:52:13;7.53;;;6.40;;
22780;SDS011;11557;50.884;4.322;2022-10-15T07:54:39;8.98;;;5.60;;
22780;SDS011;11557;50.884;4.322;2022-10-15T07:57:04;8.55;;;6.13;;
22780;SDS011;11557;50.884;4.322;2022-10-15T07:59:33;8.15;;;6.43;;
22780;SDS011;11557;50.884;4.322;2022-10-15T08:01:59;7.85;;;5.60;;
22780;SDS011;11557;50.884;4.322;2022-10-15T08:04:24;7.20;;;5.47;;
22780;SDS011;11557;50.884;4.322;2022-10-15T08:06:50;7.88;;;4.90;;
22780;SDS011;11557;50.884;4.322;2022-10-15T08:09:16;6.93;;;5.43;;
22780;SDS011;11557;50.884;4.322;2022-10-15T08:11:41;8.15;;;5.38;;
22780;SDS011;11557;50.884;4.322;2022-10-15T08:14:07;7.65;;;5.15;;
22780;SDS011;11557;50.884;4.322;2022-10-15T08:16:33;5.93;;;5.00;;
22780;SDS011;11557;50.884;4.322;2022-10-15T08:18:59;6.55;;;5.15;;
22780;SDS011;11557;50.884;4.322;2022-10-15T08:21:25;8.75;;;6.75;;
22780;SDS011;11557;50.884;4.322;2022-10-15T08:23:50;5.97;;;5.05;;
22780;SDS011;11557;50.884;4.322;2022-10-15T08:26:16;5.47;;;4.10;;
22780;SDS011;11557;50.884;4.322;2022-10-15T08:28:43;6.10;;;4.03;;
22780;SDS011;11557;50.884;4.322;2022-10-15T08:31:08;5.57;;;3.95;;
22780;SDS011;11557;50.884;4.322;2022-10-15T08:33:35;4.07;;;3.65;;
22780;SDS011;11557;50.884;4.322;2022-10-15T08:36:05;5.85;;;3.75;;
22780;SDS011;11557;50.884;4.322;2022-10-15T08:38:31;3.75;;;3.15;;
22780;SDS011;11557;50.884;4.322;2022-10-15T08:40:59;3.03;;;2.72;;
22780;SDS011;11557;50.884;4.322;2022-10-15T08:43:35;5.00;;;3.33;;
22780;SDS011;11557;50.884;4.322;2022-10-15T08:46:05;4.55;;;2.75;;
22780;SDS011;11557;50.884;4.322;2022-10-15T08:48:41;4.03;;;2.67;;
22780;SDS011;11557;50.884;4.322;2022-10-15T08:51:13;3.25;;;2.58;;
22780;SDS011;11557;50.884;4.322;2022-10-15T08:53:45;2.50;;;2.30;;
22780;SDS011;11557;50.884;4.322;2022-10-15T08:56:16;5.15;;;2.42;;
22780;SDS011;11557;50.884;4.322;2022-10-15T08:58:50;3.70;;;2.30;;
22780;SDS011;11557;50.884;4.322;2022-10-15T09:04:21;3.53;;;1.73;;
22780;SDS011;11557;50.884;4.322;2022-10-15T09:06:57;2.03;;;1.33;;
22780;SDS011;11557;50.884;4.322;2022-10-15T09:09:35;3.33;;;1.10;;
22780;SDS011;11557;50.884;4.322;2022-10-15T09:12:43;2.58;;;1.50;;
22780;SDS011;11557;50.884;4.322;2022-10-15T09:15:16;2.40;;;1.20;;
22780;SDS011;11557;50.884;4.322;2022-10-15T09:17:45;2.97;;;1.30;;
22780;SDS011;11557;50.884;4.322;2022-10-15T09:20:16;2.25;;;1.05;;
22780;SDS011;11557;50.884;4.322;2022-10-15T09:22:46;2.88;;;1.40;;
22780;SDS011;11557;50.884;4.322;2022-10-15T09:25:16;1.40;;;1.13;;
22780;SDS011;11557;50.884;4.322;2022-10-15T09:27:44;1.67;;;1.25;;
22780;SDS011;11557;50.884;4.322;2022-10-15T09:33:24;3.17;;;1.20;;
22780;SDS011;11557;50.884;4.322;2022-10-15T09:35:52;3.42;;;2.75;;
22780;SDS011;11557;50.884;4.322;2022-10-15T09:38:31;5.47;;;3.00;;
22780;SDS011;11557;50.884;4.322;2022-10-15T09:44:03;1.30;;;1.00;;
22780;SDS011;11557;50.884;4.322;2022-10-15T09:46:41;1.33;;;1.20;;
22780;SDS011;11557;50.884;4.322;2022-10-15T09:49:10;2.20;;;0.93;;
22780;SDS011;11557;50.884;4.322;2022-10-15T09:54:33;0.98;;;0.93;;
22780;SDS011;11557;50.884;4.322;2022-10-15T09:57:20;0.88;;;0.75;;
22780;SDS011;11557;50.884;4.322;2022-10-15T09:59:54;6.75;;;0.98;;
22780;SDS011;11557;50.884;4.322;2022-10-15T10:02:22;3.78;;;0.98;;
22780;SDS011;11557;50.884;4.322;2022-10-15T10:04:49;1.08;;;0.98;;
22780;SDS011;11557;50.884;4.322;2022-10-15T10:12:48;1.77;;;1.23;;
22780;SDS011;11557;50.884;4.322;2022-10-15T10:15:25;0.77;;;0.75;;
22780;SDS011;11557;50.884;4.322;2022-10-15T10:17:54;1.23;;;0.88;;
22780;SDS011;11557;50.884;4.322;2022-10-15T10:20:22;1.85;;;1.17;;
22780;SDS011;11557;50.884;4.322;2022-10-15T10:27:54;6.68;;;1.60;;
22780;SDS011;11557;50.884;4.322;2022-10-15T10:30:49;2.53;;;1.50;;
22780;SDS011;11557;50.884;4.322;2022-10-15T10:35:53;1.83;;;1.50;;
22780;SDS011;11557;50.884;4.322;2022-10-15T10:38:24;1.80;;;1.50;;
22780;SDS011;11557;50.884;4.322;2022-10-15T10:40:52;4.72;;;1.67;;
22780;SDS011;11557;50.884;4.322;2022-10-15T10:43:28;3.15;;;1.60;;
22780;SDS011;11557;50.884;4.322;2022-10-15T10:46:01;2.00;;;1.40;;
22780;SDS011;11557;50.884;4.322;2022-10-15T10:51:06;2.85;;;1.60;;
22780;SDS011;11557;50.884;4.322;2022-10-15T10:53:37;1.77;;;1.40;;
22780;SDS011;11557;50.884;4.322;2022-10-15T10:56:15;2.00;;;1.30;;
22780;SDS011;11557;50.884;4.322;2022-10-15T10:58:44;1.83;;;1.30;;
22780;SDS011;11557;50.884;4.322;2022-10-15T11:01:11;2.42;;;1.40;;
22780;SDS011;11557;50.884;4.322;2022-10-15T11:03:38;2.17;;;1.98;;
22780;SDS011;11557;50.884;4.322;2022-10-15T11:17:09;2.10;;;1.90;;
22780;SDS011;11557;50.884;4.322;2022-10-15T11:20:00;3.42;;;1.30;;
22780;SDS011;11557;50.884;4.322;2022-10-15T11:28:21;1.92;;;1.30;;
22780;SDS011;11557;50.884;4.322;2022-10-15T11:42:56;1.37;;;1.20;;
22780;SDS011;11557;50.884;4.322;2022-10-15T11:45:33;1.13;;;1.02;;
22780;SDS011;11557;50.884;4.322;2022-10-15T11:48:15;2.08;;;0.95;;
22780;SDS011;11557;50.884;4.322;2022-10-15T11:58:42;1.00;;;0.90;;
22780;SDS011;11557;50.884;4.322;2022-10-15T12:01:14;1.33;;;1.17;;
22780;SDS011;11557;50.884;4.322;2022-10-15T12:03:50;1.33;;;1.00;;
22780;SDS011;11557;50.884;4.322;2022-10-15T12:06:24;3.90;;;0.60;;
22780;SDS011;11557;50.884;4.322;2022-10-15T12:08:55;1.52;;;0.80;;
22780;SDS011;11557;50.884;4.322;2022-10-15T12:11:29;0.88;;;0.75;;
22780;SDS011;11557;50.884;4.322;2022-10-15T12:14:16;0.70;;;0.70;;
22780;SDS011;11557;50.884;4.322;2022-10-15T12:27:21;1.95;;;0.50;;
22780;SDS011;11557;50.884;4.322;2022-10-15T12:32:39;1.60;;;0.47;;
22780;SDS011;11557;50.884;4.322;2022-10-15T12:37:49;1.02;;;0.40;;
22780;SDS011;11557;50.884;4.322;2022-10-15T12:43:02;4.70;;;0.50;;
22780;SDS011;11557;50.884;4.322;2022-10-15T12:45:40;1.02;;;0.45;;
22780;SDS011;11557;50.884;4.322;2022-10-15T12:48:28;1.08;;;0.40;;
22780;SDS011;11557;50.884;4.322;2022-10-15T12:53:41;1.85;;;0.50;;
22780;SDS011;11557;50.884;4.322;2022-10-15T12:58:48;1.38;;;0.50;;
22780;SDS011;11557;50.884;4.322;2022-10-15T13:11:21;4.95;;;1.60;;
22780;SDS011;11557;50.884;4.322;2022-10-15T13:14:38;5.13;;;1.05;;
22780;SDS011;11557;50.884;4.322;2022-10-15T13:16:51;4.18;;;0.77;;
22780;SDS011;11557;50.884;4.322;2022-10-15T13:19:22;2.08;;;0.70;;
22780;SDS011;11557;50.884;4.322;2022-10-15T13:21:54;3.58;;;0.90;;
22780;SDS011;11557;50.884;4.322;2022-10-15T13:24:22;2.42;;;0.80;;
22780;SDS011;11557;50.884;4.322;2022-10-15T13:26:50;2.92;;;0.75;;
22780;SDS011;11557;50.884;4.322;2022-10-15T13:29:17;2.58;;;0.55;;
22780;SDS011;11557;50.884;4.322;2022-10-15T13:31:44;5.05;;;0.75;;
22780;SDS011;11557;50.884;4.322;2022-10-15T13:34:19;3.03;;;0.77;;
22780;SDS011;11557;50.884;4.322;2022-10-15T13:36:51;6.90;;;1.15;;
22780;SDS011;11557;50.884;4.322;2022-10-15T13:42:04;2.45;;;0.75;;
22780;SDS011;11557;50.884;4.322;2022-10-15T13:44:34;4.13;;;0.80;;
22780;SDS011;11557;50.884;4.322;2022-10-15T13:47:00;5.57;;;0.90;;
22780;SDS011;11557;50.884;4.322;2022-10-15T13:49:26;4.38;;;0.90;;
22780;SDS011;11557;50.884;4.322;2022-10-15T13:51:52;6.72;;;1.25;;
22780;SDS011;11557;50.884;4.322;2022-10-15T13:54:22;5.05;;;0.93;;
22780;SDS011;11557;50.884;4.322;2022-10-15T13:56:53;3.83;;;0.77;;
22780;SDS011;11557;50.884;4.322;2022-10-15T13:59:26;3.57;;;1.10;;
22780;SDS011;11557;50.884;4.322;2022-10-15T14:02:01;6.15;;;1.10;;
22780;SDS011;11557;50.884;4.322;2022-10-15T14:04:29;3.80;;;0.85;;
22780;SDS011;11557;50.884;4.322;2022-10-15T14:07:03;4.53;;;1.02;;
22780;SDS011;11557;50.884;4.322;2022-10-15T14:09:45;3.83;;;0.75;;
22780;SDS011;11557;50.884;4.322;2022-10-15T14:12:11;4.07;;;1.00;;
22780;SDS011;11557;50.884;4.322;2022-10-15T14:14:38;3.67;;;1.15;;
22780;SDS011;11557;50.884;4.322;2022-10-15T14:19:44;3.55;;;1.00;;
22780;SDS011;11557;50.884;4.322;2022-10-15T14:22:14;8.35;;;1.20;;
22780;SDS011;11557;50.884;4.322;2022-10-15T14:24:42;4.65;;;1.40;;
22780;SDS011;11557;50.884;4.322;2022-10-15T14:29:46;5.65;;;1.15;;
22780;SDS011;11557;50.884;4.322;2022-10-15T14:34:55;4.25;;;0.80;;
22780;SDS011;11557;50.884;4.322;2022-10-15T14:37:26;4.32;;;1.08;;
22780;SDS011;11557;50.884;4.322;2022-10-15T14:40:01;4.45;;;0.77;;
22780;SDS011;11557;50.884;4.322;2022-10-15T14:42:33;2.97;;;0.80;;
22780;SDS011;11557;50.884;4.322;2022-10-15T14:47:37;5.00;;;0.88;;
22780;SDS011;11557;50.884;4.322;2022-10-15T14:50:03;4.07;;;0.70;;
22780;SDS011;11557;50.884;4.322;2022-10-15T14:52:30;2.95;;;1.05;;
22780;SDS011;11557;50.884;4.322;2022-10-15T14:55:07;3.90;;;0.70;;
22780;SDS011;11557;50.884;4.322;2022-10-15T14:57:47;3.75;;;1.08;;
22780;SDS011;11557;50.884;4.322;2022-10-15T15:00:23;3.67;;;0.88;;
22780;SDS011;11557;50.884;4.322;2022-10-15T15:02:49;2.78;;;0.80;;
22780;SDS011;11557;50.884;4.322;2022-10-15T15:05:20;4.40;;;1.10;;
22780;SDS011;11557;50.884;4.322;2022-10-15T15:07:48;5.68;;;1.13;;
22780;SDS011;11557;50.884;4.322;2022-10-15T15:10:14;7.45;;;1.17;;
22780;SDS011;11557;50.884;4.322;2022-10-15T15:12:40;2.80;;;0.80;;
22780;SDS011;11557;50.884;4.322;2022-10-15T15:15:14;5.80;;;0.77;;
22780;SDS011;11557;50.884;4.322;2022-10-15T15:17:41;5.82;;;1.00;;
22780;SDS011;11557;50.884;4.322;2022-10-15T15:20:08;3.70;;;0.80;;
22780;SDS011;11557;50.884;4.322;2022-10-15T15:22:34;6.10;;;1.10;;
22780;SDS011;11557;50.884;4.322;2022-10-15T15:25:02;7.13;;;1.00;;
22780;SDS011;11557;50.884;4.322;2022-10-15T15:27:37;6.43;;;1.00;;
22780;SDS011;11557;50.884;4.322;2022-10-15T15:30:04;5.20;;;1.02;;
22780;SDS011;11557;50.884;4.322;2022-10-15T15:32:31;4.55;;;0.80;;
22780;SDS011;11557;50.884;4.322;2022-10-15T15:34:57;2.92;;;0.90;;
22780;SDS011;11557;50.884;4.322;2022-10-15T15:37:24;5.35;;;1.00;;
22780;SDS011;11557;50.884;4.322;2022-10-15T15:39:50;3.90;;;0.85;;
22780;SDS011;11557;50.884;4.322;2022-10-15T15:42:20;10.43;;;0.95;;
22780;SDS011;11557;50.884;4.322;2022-10-15T15:44:48;5.82;;;1.08;;
22780;SDS011;11557;50.884;4.322;2022-10-15T15:47:13;3.78;;;1.00;;
22780;SDS011;11557;50.884;4.322;2022-10-15T15:49:39;4.20;;;1.65;;
22780;SDS011;11557;50.884;4.322;2022-10-15T15:52:06;6.25;;;1.50;;
22780;SDS011;11557;50.884;4.322;2022-10-15T15:54:36;6.38;;;1.42;;
22780;SDS011;11557;50.884;4.322;2022-10-15T15:57:01;5.22;;;0.95;;
22780;SDS011;11557;50.884;4.322;2022-10-15T15:59:27;5.53;;;1.00;;
22780;SDS011;11557;50.884;4.322;2022-10-15T16:01:53;6.45;;;1.25;;
22780;SDS011;11557;50.884;4.322;2022-10-15T16:04:18;7.25;;;1.33;;
22780;SDS011;11557;50.884;4.322;2022-10-15T16:06:45;4.07;;;0.90;;
22780;SDS011;11557;50.884;4.322;2022-10-15T16:09:13;4.53;;;1.00;;
22780;SDS011;11557;50.884;4.322;2022-10-15T16:11:43;2.90;;;1.10;;
22780;SDS011;11557;50.884;4.322;2022-10-15T16:14:09;4.88;;;1.50;;
22780;SDS011;11557;50.884;4.322;2022-10-15T16:16:35;12.60;;;2.22;;
22780;SDS011;11557;50.884;4.322;2022-10-15T16:19:01;6.82;;;1.27;;
22780;SDS011;11557;50.884;4.322;2022-10-15T16:21:27;6.32;;;1.30;;
22780;SDS011;11557;50.884;4.322;2022-10-15T16:23:53;7.00;;;1.42;;
22780;SDS011;11557;50.884;4.322;2022-10-15T16:26:19;5.55;;;1.55;;
22780;SDS011;11557;50.884;4.322;2022-10-15T16:28:45;4.97;;;1.27;;
22780;SDS011;11557;50.884;4.322;2022-10-15T16:31:18;6.55;;;1.67;;
22780;SDS011;11557;50.884;4.322;2022-10-15T16:33:46;4.90;;;1.80;;
22780;SDS011;11557;50.884;4.322;2022-10-15T16:36:12;5.18;;;1.60;;
22780;SDS011;11557;50.884;4.322;2022-10-15T16:38:39;9.85;;;1.55;;
22780;SDS011;11557;50.884;4.322;2022-10-15T16:41:06;12.20;;;1.50;;
22780;SDS011;11557;50.884;4.322;2022-10-15T16:43:32;5.45;;;1.33;;
22780;SDS011;11557;50.884;4.322;2022-10-15T16:45:59;4.38;;;1.23;;
22780;SDS011;11557;50.884;4.322;2022-10-15T16:48:27;5.93;;;1.67;;
22780;SDS011;11557;50.884;4.322;2022-10-15T16:51:01;5.03;;;1.60;;
22780;SDS011;11557;50.884;4.322;2022-10-15T16:53:29;6.32;;;1.58;;
22780;SDS011;11557;50.884;4.322;2022-10-15T16:56:00;8.27;;;1.80;;
22780;SDS011;11557;50.884;4.322;2022-10-15T16:58:27;6.72;;;2.63;;
22780;SDS011;11557;50.884;4.322;2022-10-15T17:00:57;7.72;;;1.88;;
22780;SDS011;11557;50.884;4.322;2022-10-15T17:03:27;9.07;;;1.95;;
22780;SDS011;11557;50.884;4.322;2022-10-15T17:05:57;7.53;;;1.73;;
22780;SDS011;11557;50.884;4.322;2022-10-15T17:08:24;5.75;;;1.40;;
22780;SDS011;11557;50.884;4.322;2022-10-15T17:10:53;5.97;;;1.23;;